Details From PASY - Eareckson As
To PADK - Adak
Flight Number -
Tags Generated
Created
Modified
Stats Distance 344 nm / 637 km
Max Altitude 0 ft / 0 m
Waypoints 3
Social Downloads 7
Likes 0
Share VATSIM

Download

Looking for another format? Having issues loading an existing format? Contact us
Advertisement - Login to hide

Notes

Generated

Route

PASY ADK PADK

ID Type Via Altitude Latitude Longitude Leg Dist Tot Dist Heading (true) Name
O PASY APT - 0 ft / 0 m 52.71623˚ 174.09204˚ - 0 nm - -
ADK NDB - 0 ft / 0 m 51.87189˚ -176.67600˚ 342 nm 342 nm 95° / 102° MOUNT MOFFETT NDB
O PADK APT - 0 ft / 0 m 51.88270˚ -176.64786˚ 1 nm 343 nm 58° / 58° ADAK

Altitude Profile

Advertisement - Login to hide

Weather


0- 5 10 15 20 25 30 35+ Temperature / ° C

Clouds and Precipitation
Forecast for 2017-12-15 00:00 UTC. Updated an hour ago

Ground ~20,000 ft ~40,000 ft Winds

PASY

Details ICAO PASY (SYA)
Name EARECKSON AS
Region USA (Alaska)
Timezone America/Adak (UTC-10.0)
Stats Elevation 98 ft / 30 m (AMSL)
Location 52.712221° 174.113618°
Runways 1
Magnetic Variation 0.445° E

METAR

PASY 142227Z 30022G27KT 7SM BKN016 BKN060 02/00 A2881 RMK SHSNB2023E2227 CIG 016V044 BKN016 V SCT SLP760

Decode

TAF

TAF AMD PASY 142215Z 1422/1604 32020KT 4800 -SN FEW015 BKN020 640208 QNH2860INS BECMG 1511/1512 34015KT 9999 NSW SCT010 BKN020 650209 QNH2865INS TX03/1509Z TNM00/1516Z

Decode

Departure Runways

ID Width Length Bearing (true) Bearing (mag) Surface Threshold Offset Overrun Length
10 150 ft / 46 m 9,978 ft / 3,041 m 107.03° 106.58° Asphalt 0 ft / 0 m 0 ft / 0 m
28 150 ft / 46 m 9,978 ft / 3,041 m 287.06° 286.61° Asphalt 0 ft / 0 m 0 ft / 0 m

PADK

Details ICAO PADK (ADK)
Name ADAK
Region USA (Alaska)
Timezone America/Adak (UTC-10.0)
Stats Elevation 18 ft / 5 m (AMSL)
Location 51.877976° -176.645742°
Runways 2
Magnetic Variation 4.747° E

METAR

PADK 142156Z AUTO 23015KT 10SM SCT025 BKN036 BKN043 03/M01 A2890

Decode

TAF

Not found

Destination Runways

ID Width Length Bearing (true) Bearing (mag) Surface Threshold Offset Overrun Length
05 200 ft / 61 m 7,772 ft / 2,369 m 60.49° 55.74° Asphalt 0 ft / 0 m 751 ft / 229 m
18 200 ft / 61 m 7,603 ft / 2,317 m 185.39° 180.64° Asphalt 0 ft / 0 m 0 ft / 0 m
23 200 ft / 61 m 7,772 ft / 2,369 m 240.52° 235.77° Asphalt 0 ft / 0 m 151 ft / 46 m
36 200 ft / 61 m 7,603 ft / 2,317 m 5.38° 0.63° Asphalt 0 ft / 0 m 0 ft / 0 m

Approach Navaids

Runway Type Ident Frequency Range Bearing (true) Bearing (mag) Slope Elevation
23 Localiser IBER 108.90 MHz 18 nm / 33 km 240.61° 235.86° - 18 ft / 5 m (AMSL)
23 Glidescope IBER 108.90 MHz 10 nm / 19 km 240.51° 235.76° 2.75° 18 ft / 5 m (AMSL)

Popular Alternatives